Time;durP1;ratioP1;P1;durP2;ratioP2;P2;SDS_P1;SDS_P2;PMS_P1;PMS_P2;Temp;Humidity;BMP_temperature;BMP_pressure;BME280_temperature;BME280_humidity;BME280_pressure;Samples;Min_cycle;Max_cycle;Signal;HPM_P1;HPM_P2
2022/07/30 00:00:37;;;;;;;3.58;1.80;;;;;;;18.20;71.33;101940.38;5037873;28;20287;-77
2022/07/30 00:03:02;;;;;;;2.30;1.63;;;;;;;18.17;71.42;101936.09;5037728;28;20049;-77
2022/07/30 00:05:28;;;;;;;4.28;1.98;;;;;;;18.15;70.98;101932.66;5037311;28;20132;-77
2022/07/30 00:07:53;;;;;;;4.68;2.00;;;;;;;18.13;71.27;101933.69;5038129;28;20044;-77
2022/07/30 00:10:19;;;;;;;1.92;1.73;;;;;;;18.09;71.03;101927.69;5037176;28;20363;-77
2022/07/30 00:12:44;;;;;;;2.10;1.90;;;;;;;18.08;71.17;101933.06;5036385;28;20069;-77
2022/07/30 00:15:10;;;;;;;7.97;2.15;;;;;;;18.04;71.40;101924.44;5037614;28;20063;-77
2022/07/30 00:17:35;;;;;;;2.75;1.90;;;;;;;18.01;71.14;101914.88;5037930;28;20057;-77
2022/07/30 00:20:01;;;;;;;3.33;2.10;;;;;;;17.99;71.12;101923.81;5037864;28;20044;-77
2022/07/30 00:22:26;;;;;;;3.47;2.03;;;;;;;17.97;71.37;101918.63;5035371;28;20037;-77
2022/07/30 00:24:52;;;;;;;3.15;1.90;;;;;;;17.94;71.51;101913.50;5037480;28;20045;-77
2022/07/30 00:27:17;;;;;;;4.32;1.92;;;;;;;17.92;71.42;101910.09;5036739;28;20356;-77
2022/07/30 00:29:43;;;;;;;2.95;2.00;;;;;;;17.89;71.50;101898.78;5036140;28;20222;-77
2022/07/30 00:32:08;;;;;;;2.35;1.90;;;;;;;17.87;71.56;101903.31;5037092;28;20041;-77
2022/07/30 00:34:33;;;;;;;2.38;2.17;;;;;;;17.86;71.76;101906.91;5036867;28;20034;-77
2022/07/30 00:36:59;;;;;;;6.65;2.40;;;;;;;17.81;71.60;101907.97;5036276;28;20265;-77
2022/07/30 00:39:26;;;;;;;3.58;2.55;;;;;;;17.79;71.45;101901.91;5036550;28;20339;-77
2022/07/30 00:41:58;;;;;;;3.72;2.20;;;;;;;17.78;71.42;101900.19;5020053;28;20074;-77
2022/07/30 00:44:23;;;;;;;3.33;2.47;;;;;;;17.77;71.88;101900.25;5036461;28;20096;-77
2022/07/30 00:46:49;;;;;;;3.28;2.05;;;;;;;17.74;71.61;101898.66;5035761;28;20052;-77
2022/07/30 00:49:14;;;;;;;3.08;2.58;;;;;;;17.71;71.64;101904.09;5035265;28;20064;-77
2022/07/30 00:51:39;;;;;;;2.40;2.20;;;;;;;17.71;71.81;101904.09;5019032;28;20029;-77
2022/07/30 00:54:05;;;;;;;3.15;2.10;;;;;;;17.70;71.81;101901.53;5035841;28;20030;-77
2022/07/30 00:56:30;;;;;;;4.00;2.53;;;;;;;17.68;71.60;101904.25;5034801;28;20043;-77
2022/07/30 00:58:56;;;;;;;2.20;2.05;;;;;;;17.67;71.81;101893.78;5035576;28;20040;-77
2022/07/30 01:01:21;;;;;;;3.45;2.10;;;;;;;17.64;71.98;101894.78;5036120;28;20044;-77
2022/07/30 01:03:46;;;;;;;4.45;2.65;;;;;;;17.61;72.04;101900.25;5036606;28;20060;-77
2022/07/30 01:06:12;;;;;;;2.60;2.40;;;;;;;17.59;72.06;101900.34;5036230;28;20049;-77
2022/07/30 01:08:37;;;;;;;4.82;2.30;;;;;;;17.58;71.94;101897.75;5036636;28;20041;-77
2022/07/30 01:11:03;;;;;;;3.70;2.85;;;;;;;17.56;71.82;101895.19;5035654;28;20156;-77
2022/07/30 01:13:28;;;;;;;2.47;2.13;;;;;;;17.54;71.86;101896.22;5034706;28;20041;-77
2022/07/30 01:15:54;;;;;;;3.22;2.30;;;;;;;17.53;72.02;101897.16;5036846;28;20033;-77
2022/07/30 01:18:22;;;;;;;4.07;2.35;;;;;;;17.50;71.94;101897.31;5034474;28;20043;-77
2022/07/30 01:21:00;;;;;;;3.17;2.35;;;;;;;17.49;71.74;101899.09;5036465;28;20037;-77
2022/07/30 01:23:38;;;;;;;3.10;2.00;;;;;;;17.46;72.00;101897.50;5035580;28;20226;-77
2022/07/30 01:26:07;;;;;;;4.05;2.22;;;;;;;17.43;71.74;101896.78;5035448;28;20096;-77
2022/07/30 01:28:37;;;;;;;2.95;2.13;;;;;;;17.41;72.10;101896.88;5035775;28;20029;-77
2022/07/30 01:31:04;;;;;;;2.50;1.95;;;;;;;17.38;71.80;101890.88;5036392;28;20358;-77
2022/07/30 01:33:31;;;;;;;3.28;2.03;;;;;;;17.36;71.97;101893.59;5035651;28;20413;-77
2022/07/30 01:35:58;;;;;;;2.80;2.17;;;;;;;17.34;72.04;101892.84;5035111;28;20209;-77
2022/07/30 01:38:27;;;;;;;1.98;1.88;;;;;;;17.32;71.85;101893.81;5034419;28;20029;-77
2022/07/30 01:40:54;;;;;;;3.30;2.25;;;;;;;17.31;71.91;101892.13;5036148;28;20079;-77
2022/07/30 01:43:22;;;;;;;3.80;1.98;;;;;;;17.28;71.87;101890.47;5035478;28;20111;-77
2022/07/30 01:45:48;;;;;;;3.57;2.00;;;;;;;17.26;71.90;101892.34;5036114;28;20406;-77
2022/07/30 01:48:17;;;;;;;2.22;1.95;;;;;;;17.24;72.26;101888.94;5035735;28;20300;-77
2022/07/30 01:50:45;;;;;;;2.75;2.00;;;;;;;17.22;72.19;101886.38;5034824;28;20040;-77
2022/07/30 01:53:18;;;;;;;3.35;2.08;;;;;;;17.18;72.29;101882.19;5035695;28;20321;-77
2022/07/30 01:55:45;;;;;;;4.22;2.03;;;;;;;17.17;72.31;101884.91;5034558;28;20039;-77
2022/07/30 01:58:13;;;;;;;2.75;1.92;;;;;;;17.14;71.91;101885.09;5035406;28;20032;-77
2022/07/30 02:00:42;;;;;;;1.87;1.77;;;;;;;17.13;72.06;101893.94;5035828;28;20084;-77
2022/07/30 02:03:09;;;;;;;5.97;2.53;;;;;;;17.10;71.98;101894.09;5067526;28;20206;-77
2022/07/30 02:05:36;;;;;;;1.80;1.70;;;;;;;17.06;71.91;101891.63;5035429;28;20021;-77
2022/07/30 02:08:12;;;;;;;3.25;1.92;;;;;;;17.05;71.96;101886.41;5035558;28;20045;-77
2022/07/30 02:10:44;;;;;;;2.65;2.05;;;;;;;17.02;71.78;101892.69;5035718;28;20044;-77
2022/07/30 02:13:13;;;;;;;1.90;1.80;;;;;;;17.01;72.00;101892.81;5035470;28;20221;-77
2022/07/30 02:15:48;;;;;;;3.88;2.00;;;;;;;16.98;72.21;101892.94;5035846;28;20133;-76
2022/07/30 02:18:19;;;;;;;3.35;2.10;;;;;;;16.96;72.15;101908.03;5033727;28;20021;-77
2022/07/30 02:20:50;;;;;;;3.35;1.88;;;;;;;16.93;72.03;101906.41;5035610;28;20105;-77
2022/07/30 02:23:17;;;;;;;3.88;2.08;;;;;;;16.91;72.05;101910.91;5033433;28;20407;-77
2022/07/30 02:25:48;;;;;;;2.00;1.90;;;;;;;16.89;72.02;101902.19;5035562;28;20104;-77
2022/07/30 02:28:17;;;;;;;3.00;2.58;;;;;;;16.87;72.00;101912.84;5035089;28;20033;-77
2022/07/30 02:30:53;;;;;;;2.30;2.03;;;;;;;16.85;72.25;101912.06;5035731;28;20021;-77
2022/07/30 02:33:22;;;;;;;2.63;2.40;;;;;;;16.83;72.18;101913.94;5035021;28;20028;-77
2022/07/30 02:35:49;;;;;;;2.42;2.22;;;;;;;16.81;72.08;101905.19;5036891;28;20033;-77
2022/07/30 02:38:16;;;;;;;3.45;2.72;;;;;;;16.78;72.32;101900.06;5038969;28;20049;-77
2022/07/30 02:40:43;;;;;;;2.97;2.47;;;;;;;16.77;71.94;101901.00;5039516;28;20041;-77
2022/07/30 02:43:13;;;;;;;4.47;2.78;;;;;;;16.75;71.82;101896.72;5037901;28;20038;-77
2022/07/30 02:45:40;;;;;;;3.40;2.85;;;;;;;16.73;72.12;101890.63;5039569;28;20033;-77
2022/07/30 02:48:07;;;;;;;3.05;2.80;;;;;;;16.70;72.06;101891.66;5039419;28;20037;-77
2022/07/30 02:50:34;;;;;;;3.60;2.85;;;;;;;16.69;72.12;101889.94;5039011;28;20236;-76
2022/07/30 02:53:01;;;;;;;2.92;2.72;;;;;;;16.66;72.26;101888.31;5042850;28;20103;-73
2022/07/30 02:55:30;;;;;;;3.40;2.63;;;;;;;16.66;72.41;101884.78;5045028;28;20201;-73
2022/07/30 02:57:57;;;;;;;6.93;2.97;;;;;;;16.63;72.17;101890.25;5044086;28;20029;-73
2022/07/30 03:00:24;;;;;;;2.80;2.60;;;;;;;16.61;72.00;101889.47;5042356;28;20038;-74
2022/07/30 03:02:52;;;;;;;2.63;2.42;;;;;;;16.59;72.45;101892.19;5039039;28;20247;-74
2022/07/30 03:05:18;;;;;;;2.60;2.33;;;;;;;16.58;72.35;101894.91;5037283;28;20037;-74
2022/07/30 03:07:45;;;;;;;2.75;2.55;;;;;;;16.55;72.26;101887.97;5037676;28;20674;-74
2022/07/30 03:10:11;;;;;;;2.45;2.25;;;;;;;16.53;72.15;101897.75;5037045;28;20037;-74
2022/07/30 03:12:39;;;;;;;2.45;2.28;;;;;;;16.51;72.03;101891.69;5037592;28;20283;-74
2022/07/30 03:15:05;;;;;;;2.50;2.30;;;;;;;16.50;72.33;101892.66;5037516;28;20025;-74
2022/07/30 03:17:37;;;;;;;2.47;2.30;;;;;;;16.48;72.25;101899.78;5037137;28;20108;-74
2022/07/30 03:20:07;;;;;;;3.40;2.55;;;;;;;16.47;72.20;101898.06;5038659;28;20060;-74
2022/07/30 03:22:36;;;;;;;2.97;2.70;;;;;;;16.45;72.14;101898.16;5036806;28;20040;-74
2022/07/30 03:25:04;;;;;;;4.25;3.20;;;;;;;16.44;72.31;101900.84;5037637;28;20489;-74
2022/07/30 03:27:30;;;;;;;3.25;3.00;;;;;;;16.41;71.95;101893.94;5036815;28;20043;-74
2022/07/30 03:29:57;;;;;;;3.17;2.92;;;;;;;16.40;72.22;101894.84;5038736;28;20029;-74
2022/07/30 03:32:24;;;;;;;3.25;2.97;;;;;;;16.39;72.06;101893.16;5038353;28;20360;-74
2022/07/30 03:34:50;;;;;;;2.95;2.65;;;;;;;16.37;72.44;101899.44;5038250;28;20324;-74
2022/07/30 03:37:16;;;;;;;2.92;2.55;;;;;;;16.35;72.39;101896.88;5038097;28;20372;-74
2022/07/30 03:39:42;;;;;;;3.17;2.88;;;;;;;16.33;72.38;101903.16;5038188;28;20045;-74
2022/07/30 03:42:08;;;;;;;2.90;2.55;;;;;;;16.31;72.60;101908.53;5038145;28;20370;-74
2022/07/30 03:44:34;;;;;;;2.72;2.50;;;;;;;16.29;72.33;101911.22;5037861;28;20033;-74
2022/07/30 03:47:01;;;;;;;2.90;2.70;;;;;;;16.27;72.30;101899.03;5037884;28;20044;-74
2022/07/30 03:49:26;;;;;;;3.42;2.92;;;;;;;16.26;72.58;101908.75;5037670;28;20048;-74
2022/07/30 03:51:53;;;;;;;2.80;2.60;;;;;;;16.25;72.37;101907.03;5038340;28;20037;-74
2022/07/30 03:54:19;;;;;;;2.80;2.60;;;;;;;16.23;72.54;101900.97;5037632;28;20052;-74
2022/07/30 03:56:45;;;;;;;2.83;2.63;;;;;;;16.22;72.61;101906.31;5037997;28;20092;-74
2022/07/30 03:59:12;;;;;;;4.47;2.80;;;;;;;16.19;72.74;101904.69;5037605;28;20033;-74
2022/07/30 04:01:38;;;;;;;3.33;2.90;;;;;;;16.18;72.66;101910.91;5036990;28;20364;-74
2022/07/30 04:04:08;;;;;;;3.00;2.72;;;;;;;16.17;72.53;101917.13;5037930;28;20041;-74
2022/07/30 04:06:38;;;;;;;3.63;3.13;;;;;;;16.15;72.62;101911.03;5036391;28;20037;-74
2022/07/30 04:09:05;;;;;;;3.42;3.22;;;;;;;16.14;72.72;101914.63;5037931;28;20450;-74
2022/07/30 04:11:30;;;;;;;3.33;3.03;;;;;;;16.12;72.69;101914.69;5037212;28;20195;-74
2022/07/30 04:13:56;;;;;;;4.38;3.10;;;;;;;16.11;72.84;101910.31;5037614;28;20037;-74
2022/07/30 04:16:45;;;;;;;4.25;3.13;;;;;;;16.10;72.72;101920.97;5037144;28;20335;-74
2022/07/30 04:19:18;;;;;;;3.63;3.25;;;;;;;16.09;72.80;101913.97;5037298;28;20222;-74
2022/07/30 04:21:46;;;;;;;3.80;3.50;;;;;;;16.07;72.75;101921.13;5036302;28;20025;-74
2022/07/30 04:24:12;;;;;;;3.10;2.90;;;;;;;16.05;72.90;101921.19;5037034;28;20057;-74
2022/07/30 04:26:38;;;;;;;3.03;2.83;;;;;;;16.04;72.75;101923.91;5037633;28;20048;-74
2022/07/30 04:29:07;;;;;;;3.75;3.42;;;;;;;16.02;73.03;101921.31;5037603;28;20029;-74
2022/07/30 04:31:34;;;;;;;3.80;3.50;;;;;;;16.02;73.22;101921.31;5036942;28;20402;-74
2022/07/30 04:34:01;;;;;;;3.20;3.00;;;;;;;16.01;73.27;101918.75;5037432;28;20025;-74
2022/07/30 04:36:26;;;;;;;4.55;2.83;;;;;;;16.00;72.94;101923.19;5028250;28;20045;-74
2022/07/30 04:38:52;;;;;;;3.65;3.35;;;;;;;16.00;73.15;101925.81;5015167;28;20356;-74
2022/07/30 04:41:17;;;;;;;3.30;3.10;;;;;;;15.98;73.04;101930.31;5015046;28;20333;-74
2022/07/30 04:43:42;;;;;;;3.78;3.15;;;;;;;15.99;73.04;101925.88;5014320;28;20109;-74
2022/07/30 04:46:08;;;;;;;3.72;3.42;;;;;;;15.99;73.01;101925.88;5015538;28;20360;-74
2022/07/30 04:48:33;;;;;;;3.60;3.30;;;;;;;15.99;73.39;101931.16;5014997;28;20381;-74
2022/07/30 04:51:01;;;;;;;7.38;3.70;;;;;;;15.97;73.12;101935.66;5015905;28;20057;-74
2022/07/30 04:53:28;;;;;;;3.40;3.20;;;;;;;15.98;73.23;101929.47;5015453;28;20175;-74
2022/07/30 04:55:54;;;;;;;5.15;3.17;;;;;;;15.97;73.24;101928.63;5015898;28;20194;-74
2022/07/30 04:58:21;;;;;;;3.60;3.30;;;;;;;15.97;73.23;101925.97;5012764;28;20039;-74
2022/07/30 05:00:47;;;;;;;3.33;3.05;;;;;;;15.96;73.24;101929.53;5015076;28;20329;-74
2022/07/30 05:03:15;;;;;;;2.92;2.70;;;;;;;15.96;73.23;101918.97;4997429;28;20226;-74
2022/07/30 05:05:41;;;;;;;5.13;3.20;;;;;;;15.96;73.34;101924.25;5015383;28;20057;-74
2022/07/30 05:08:07;;;;;;;3.70;3.30;;;;;;;15.96;73.27;101928.69;5014422;28;20246;-74
2022/07/30 05:10:33;;;;;;;4.45;3.10;;;;;;;15.97;73.37;101938.31;5013613;28;20264;-74
2022/07/30 05:12:58;;;;;;;3.17;2.90;;;;;;;15.96;73.36;101940.09;5015077;28;20033;-75
2022/07/30 05:15:23;;;;;;;3.92;3.00;;;;;;;15.96;73.26;101936.63;5015038;28;20037;-74
2022/07/30 05:17:50;;;;;;;3.67;3.38;;;;;;;15.97;73.63;101936.56;5015463;28;20104;-74
2022/07/30 05:20:15;;;;;;;3.65;3.13;;;;;;;15.97;73.61;101948.88;5014547;28;20065;-74
2022/07/30 05:22:40;;;;;;;3.00;2.80;;;;;;;15.97;73.59;101941.84;5014812;28;20380;-74
2022/07/30 05:25:06;;;;;;;4.10;3.03;;;;;;;15.97;73.56;101949.75;5014865;28;20072;-74
2022/07/30 05:27:32;;;;;;;3.40;3.10;;;;;;;15.97;73.52;101955.03;5013392;28;20046;-74
2022/07/30 05:29:57;;;;;;;3.28;3.00;;;;;;;15.99;73.65;101955.81;5014872;28;20030;-74
2022/07/30 05:32:22;;;;;;;5.50;2.58;;;;;;;15.99;73.62;101952.31;5029605;28;20128;-74
2022/07/30 05:34:48;;;;;;;2.85;2.40;;;;;;;16.00;73.36;101959.31;5015133;28;20236;-74
2022/07/30 05:37:13;;;;;;;3.38;2.70;;;;;;;16.00;73.59;101962.81;5014317;28;20105;-74
2022/07/30 05:39:38;;;;;;;5.43;3.28;;;;;;;16.00;73.49;101961.97;5014743;28;20057;-74
2022/07/30 05:42:04;;;;;;;3.50;2.80;;;;;;;16.01;73.58;101961.91;5015283;28;20041;-74
2022/07/30 05:44:29;;;;;;;3.00;2.80;;;;;;;16.02;73.54;101962.75;5014002;28;20587;-74
2022/07/30 05:46:55;;;;;;;2.92;2.72;;;;;;;16.03;73.63;101967.13;5032421;28;20091;-74
2022/07/30 05:49:20;;;;;;;3.22;2.55;;;;;;;16.04;73.33;101967.00;5033382;28;20393;-74
2022/07/30 05:51:46;;;;;;;2.83;2.60;;;;;;;16.04;72.78;101966.16;5034169;28;20045;-74
2022/07/30 05:54:11;;;;;;;2.38;1.88;;;;;;;16.05;72.59;101966.09;5016014;28;20029;-74
2022/07/30 05:56:36;;;;;;;2.00;1.83;;;;;;;16.06;72.22;101967.84;5034304;28;20128;-74
2022/07/30 05:59:03;;;;;;;2.50;1.48;;;;;;;16.06;71.87;101965.19;5034438;28;20044;-74
2022/07/30 06:01:28;;;;;;;2.38;2.20;;;;;;;16.07;72.13;101966.88;5033379;28;20104;-74
2022/07/30 06:03:53;;;;;;;1.65;1.55;;;;;;;16.09;72.62;101964.19;5034238;28;20229;-74
2022/07/30 06:06:19;;;;;;;1.63;1.52;;;;;;;16.10;72.38;101971.19;5032880;28;20045;-74
2022/07/30 06:08:44;;;;;;;5.70;2.20;;;;;;;16.11;72.81;101965.81;5034248;28;20174;-74
2022/07/30 06:11:09;;;;;;;1.92;1.80;;;;;;;16.13;72.57;101965.75;5032517;28;20041;-74
2022/07/30 06:13:36;;;;;;;3.42;2.60;;;;;;;16.14;72.62;101969.25;5032383;28;20033;-74
2022/07/30 06:16:01;;;;;;;2.58;2.22;;;;;;;16.15;73.03;101969.16;5034069;28;20370;-74
2022/07/30 06:18:27;;;;;;;2.47;2.28;;;;;;;16.18;73.45;101970.84;5032135;28;20034;-74
2022/07/30 06:20:53;;;;;;;1.90;1.80;;;;;;;16.19;73.07;101972.53;5034133;28;20072;-74
2022/07/30 06:23:20;;;;;;;1.70;1.60;;;;;;;16.18;72.16;101976.13;5033012;28;20218;-74
2022/07/30 06:25:46;;;;;;;1.65;1.55;;;;;;;16.20;72.82;101971.63;5033787;28;20375;-74
2022/07/30 06:28:13;;;;;;;1.75;1.65;;;;;;;16.20;72.57;101972.47;5032209;28;20033;-74
2022/07/30 06:30:39;;;;;;;1.70;1.60;;;;;;;16.22;73.59;101964.47;5032837;28;20100;-74
2022/07/30 06:33:04;;;;;;;2.58;1.80;;;;;;;16.23;73.96;101969.69;5023050;28;20038;-74
2022/07/30 06:35:30;;;;;;;3.15;1.63;;;;;;;16.25;74.90;101965.19;5031772;28;20202;-74
2022/07/30 06:38:04;;;;;;;1.70;1.30;;;;;;;16.29;74.92;101972.03;5031907;28;20041;-74
2022/07/30 06:40:29;;;;;;;1.83;1.20;;;;;;;16.31;74.83;101969.31;5032846;28;20043;-74
2022/07/30 06:42:55;;;;;;;1.50;1.20;;;;;;;16.31;74.85;101962.25;5035178;28;20057;-74
2022/07/30 06:45:20;;;;;;;2.55;1.25;;;;;;;16.36;74.77;101969.13;5034757;28;20034;-74
2022/07/30 06:47:45;;;;;;;1.50;1.30;;;;;;;16.37;75.21;101965.53;5033823;28;20044;-74
2022/07/30 06:50:11;;;;;;;2.95;1.35;;;;;;;16.39;75.18;101964.53;5030096;28;20045;-74
2022/07/30 06:52:37;;;;;;;1.63;1.50;;;;;;;16.42;75.43;101966.16;5035012;28;20033;-74
2022/07/30 06:55:03;;;;;;;2.28;1.38;;;;;;;16.44;75.28;101970.44;5035108;28;20171;-74
2022/07/30 06:57:29;;;;;;;1.58;1.48;;;;;;;16.47;75.56;101958.88;5034618;28;20048;-74
2022/07/30 06:59:54;;;;;;;1.63;1.30;;;;;;;16.50;75.44;101962.25;5035592;28;20033;-74
2022/07/30 07:02:19;;;;;;;2.63;1.63;;;;;;;16.52;75.61;101962.16;5034686;28;20100;-74
2022/07/30 07:04:45;;;;;;;3.15;1.00;;;;;;;16.56;75.63;101966.38;5033667;28;20033;-74
2022/07/30 07:07:10;;;;;;;2.58;1.52;;;;;;;16.57;75.60;101969.88;5013897;28;20033;-74
2022/07/30 07:09:36;;;;;;;1.10;1.00;;;;;;;16.61;75.56;101974.09;5027134;28;20093;-74
2022/07/30 07:12:01;;;;;;;2.72;1.58;;;;;;;16.63;75.23;101969.59;5035843;28;20087;-74
2022/07/30 07:14:27;;;;;;;3.50;1.17;;;;;;;16.65;75.42;101979.16;5034051;28;20058;-74
2022/07/30 07:16:52;;;;;;;1.70;0.95;;;;;;;16.67;75.09;101974.66;5035519;28;20197;-74
2022/07/30 07:19:18;;;;;;;1.10;0.90;;;;;;;16.68;75.16;101984.31;5033916;28;20033;-74
2022/07/30 07:21:44;;;;;;;4.57;1.50;;;;;;;16.69;75.01;101979.88;5036425;28;20045;-74
2022/07/30 07:24:10;;;;;;;3.08;1.30;;;;;;;16.70;74.99;101979.78;5038311;28;20103;-74
2022/07/30 07:26:35;;;;;;;1.88;1.00;;;;;;;16.73;74.98;101976.13;5038710;28;20072;-74
2022/07/30 07:29:01;;;;;;;1.52;1.15;;;;;;;16.75;74.22;101981.34;5037347;28;20348;-74
2022/07/30 07:31:27;;;;;;;1.17;1.02;;;;;;;16.78;74.09;101995.28;5038176;28;20029;-74
2022/07/30 07:33:55;;;;;;;5.63;1.00;;;;;;;16.80;73.24;101987.28;5032177;28;20276;-74
2022/07/30 07:36:20;;;;;;;1.40;0.93;;;;;;;16.82;73.21;101986.25;5038330;28;20033;-74
2022/07/30 07:38:46;;;;;;;1.80;0.93;;;;;;;16.85;73.03;101993.25;5038480;28;20029;-74
2022/07/30 07:41:11;;;;;;;1.10;1.00;;;;;;;16.85;71.47;101994.09;5038691;28;20335;-74
2022/07/30 07:43:37;;;;;;;1.15;1.08;;;;;;;16.86;71.87;101990.53;5037833;28;20026;-74
2022/07/30 07:46:03;;;;;;;2.47;1.00;;;;;;;16.91;72.47;101992.94;5038395;28;20032;-74
2022/07/30 07:48:28;;;;;;;1.70;0.95;;;;;;;16.94;72.49;101986.66;5037518;28;20041;-74
2022/07/30 07:50:54;;;;;;;0.90;0.77;;;;;;;16.96;72.62;101990.91;5037939;28;20236;-74
2022/07/30 07:53:19;;;;;;;2.42;0.80;;;;;;;16.99;71.96;101987.25;5036419;28;20033;-74
2022/07/30 07:55:44;;;;;;;2.28;1.17;;;;;;;17.01;72.23;101980.97;5036532;28;20342;-74
2022/07/30 07:58:12;;;;;;;1.23;1.10;;;;;;;17.03;71.84;101980.91;5019945;28;20289;-74
2022/07/30 08:00:38;;;;;;;2.42;1.00;;;;;;;17.06;72.14;101988.66;5036926;28;20025;-74
2022/07/30 08:03:03;;;;;;;1.00;0.95;;;;;;;17.08;71.52;101982.38;5037812;28;20045;-74
2022/07/30 08:05:28;;;;;;;2.15;0.80;;;;;;;17.12;71.23;101984.84;5037065;28;20034;-74
2022/07/30 08:07:54;;;;;;;1.60;1.00;;;;;;;17.15;71.05;101979.41;5037789;28;20109;-74
2022/07/30 08:10:19;;;;;;;0.80;0.80;;;;;;;17.17;70.95;101980.19;5036998;28;20233;-74
2022/07/30 08:12:45;;;;;;;2.63;1.20;;;;;;;17.19;70.88;101983.63;5037758;28;20220;-74
2022/07/30 08:15:10;;;;;;;1.35;1.00;;;;;;;17.21;70.50;101977.31;5037019;28;20049;-74
2022/07/30 08:17:53;;;;;;;1.13;0.90;;;;;;;17.24;70.01;101978.94;5037519;28;20064;-74
2022/07/30 08:20:21;;;;;;;2.47;0.90;;;;;;;17.25;69.61;101975.38;5025661;28;20260;-74
2022/07/30 08:22:46;;;;;;;1.17;0.77;;;;;;;17.28;69.33;101964.63;5037100;28;20025;-74
2022/07/30 08:25:12;;;;;;;1.05;0.80;;;;;;;17.30;69.50;101968.06;5035842;28;20271;-74
2022/07/30 08:27:37;;;;;;;0.95;0.73;;;;;;;17.33;69.11;101970.53;5037734;28;20041;-74
2022/07/30 08:30:04;;;;;;;2.28;0.90;;;;;;;17.35;68.99;101976.59;5037439;28;20087;-74
2022/07/30 08:32:30;;;;;;;0.70;0.70;;;;;;;17.37;68.81;101966.81;5035340;28;20105;-74
2022/07/30 08:34:55;;;;;;;0.65;0.65;;;;;;;17.40;68.45;101971.94;5035709;28;20256;-74
2022/07/30 08:37:20;;;;;;;2.55;1.25;;;;;;;17.44;68.88;101967.34;5036601;28;20071;-74
2022/07/30 08:39:46;;;;;;;3.78;1.20;;;;;;;17.46;68.67;101971.63;5037352;28;20063;-74
2022/07/30 08:42:13;;;;;;;2.58;1.10;;;;;;;17.50;68.57;101969.69;5019024;28;20041;-74
2022/07/30 08:44:40;;;;;;;2.90;1.17;;;;;;;17.53;68.77;101976.59;5037208;28;20036;-74
2022/07/30 08:47:08;;;;;;;1.05;0.80;;;;;;;17.56;68.60;101981.75;5037233;28;20049;-74
2022/07/30 08:49:35;;;;;;;1.17;0.90;;;;;;;17.58;68.50;101970.13;5036696;28;20033;-74
2022/07/30 08:52:01;;;;;;;2.50;1.10;;;;;;;17.62;68.86;101979.63;5037087;28;20033;-74
2022/07/30 08:54:27;;;;;;;1.02;1.02;;;;;;;17.69;68.67;101982.81;5036952;28;20236;-74
2022/07/30 08:56:53;;;;;;;5.03;1.10;;;;;;;17.75;68.79;101978.97;5036761;28;20048;-74
2022/07/30 08:59:22;;;;;;;3.40;1.15;;;;;;;17.80;68.30;101985.75;5035924;28;20033;-74
2022/07/30 09:01:48;;;;;;;1.60;1.30;;;;;;;17.84;68.02;101987.31;5038085;28;20029;-74
2022/07/30 09:04:14;;;;;;;1.52;0.95;;;;;;;17.87;67.66;101983.66;5037480;28;20032;-74
2022/07/30 09:06:39;;;;;;;1.00;0.90;;;;;;;17.89;67.76;101981.78;5037615;28;20104;-75
2022/07/30 09:09:05;;;;;;;1.85;1.00;;;;;;;17.91;67.15;101990.50;5038401;28;20044;-74
2022/07/30 09:11:34;;;;;;;1.77;0.95;;;;;;;17.95;67.43;101988.56;5036747;28;20044;-74
2022/07/30 09:14:13;;;;;;;0.98;0.90;;;;;;;17.98;68.00;101993.69;5036603;28;20091;-74
2022/07/30 09:16:40;;;;;;;1.13;0.93;;;;;;;18.00;68.22;101995.31;5036767;28;20043;-74
2022/07/30 09:19:14;;;;;;;1.75;1.00;;;;;;;18.05;68.19;101994.22;5037887;28;20217;-74
2022/07/30 09:21:40;;;;;;;1.33;0.95;;;;;;;18.11;68.06;101999.19;5037767;28;20040;-74
2022/07/30 09:24:10;;;;;;;0.90;0.70;;;;;;;18.16;68.45;101997.16;5036898;28;20041;-74
2022/07/30 09:26:56;;;;;;;1.85;1.20;;;;;;;18.22;68.45;101996.81;5036069;28;20283;-74
2022/07/30 09:29:25;;;;;;;1.10;0.93;;;;;;;18.27;67.85;101989.47;5036012;28;20333;-74
2022/07/30 09:31:56;;;;;;;0.77;0.77;;;;;;;18.30;67.74;101991.06;5036692;28;20065;-74
2022/07/30 09:34:33;;;;;;;2.00;1.20;;;;;;;18.32;67.04;101986.53;5022924;28;20036;-74
2022/07/30 09:37:18;;;;;;;1.27;0.98;;;;;;;18.36;67.00;101988.09;5036574;28;20033;-74
2022/07/30 09:39:44;;;;;;;2.95;1.25;;;;;;;18.40;66.71;101989.63;5023592;28;20045;-74
2022/07/30 09:42:24;;;;;;;1.80;1.05;;;;;;;18.42;66.88;101987.75;5034909;28;20275;-74
2022/07/30 09:44:50;;;;;;;1.70;1.20;;;;;;;18.48;67.35;101982.13;5035858;28;20041;-74
2022/07/30 09:47:30;;;;;;;1.80;1.00;;;;;;;18.54;66.93;101976.47;5034208;28;20029;-74
2022/07/30 09:50:13;;;;;;;1.67;0.90;;;;;;;18.59;67.25;101974.41;5036261;28;20029;-74
2022/07/30 09:52:42;;;;;;;1.85;1.17;;;;;;;18.65;67.16;101973.22;5034507;28;20021;-74
2022/07/30 09:55:09;;;;;;;2.30;1.20;;;;;;;18.70;67.15;101975.59;5035912;28;20364;-74
2022/07/30 09:57:35;;;;;;;1.25;1.13;;;;;;;18.73;67.02;101976.25;5034879;28;20354;-74
2022/07/30 10:00:20;;;;;;;1.83;1.67;;;;;;;18.77;66.90;101975.16;5036161;28;20033;-74
2022/07/30 10:02:46;;;;;;;2.97;1.05;;;;;;;18.85;65.99;101979.22;5035647;28;20045;-74
2022/07/30 10:05:14;;;;;;;1.40;1.08;;;;;;;18.89;65.02;101975.44;5033821;28;20280;-74
2022/07/30 10:07:47;;;;;;;1.77;1.10;;;;;;;18.93;65.52;101977.81;5035994;28;20224;-74
2022/07/30 10:10:12;;;;;;;1.38;1.10;;;;;;;18.98;65.86;101978.41;5035559;28;20037;-74
2022/07/30 10:12:38;;;;;;;1.08;0.80;;;;;;;19.02;65.98;101973.75;5034401;28;20244;-74
2022/07/30 10:15:05;;;;;;;2.25;1.08;;;;;;;19.10;65.97;101981.28;5035834;28;20060;-74
2022/07/30 10:17:33;;;;;;;2.95;1.00;;;;;;;19.16;65.61;101987.09;5035071;28;20105;-74
2022/07/30 10:19:58;;;;;;;0.80;0.80;;;;;;;19.21;65.70;101989.50;5035878;28;20086;-74
2022/07/30 10:22:24;;;;;;;2.72;1.25;;;;;;;19.24;65.27;101985.78;5035011;28;20049;-74
2022/07/30 10:24:49;;;;;;;2.55;1.08;;;;;;;19.25;65.39;101985.69;5035148;28;20048;-74
2022/07/30 10:27:15;;;;;;;3.15;0.90;;;;;;;19.29;65.37;101986.38;5035158;28;20033;-74
2022/07/30 10:29:41;;;;;;;1.90;1.00;;;;;;;19.35;65.43;101996.63;5035630;28;20071;-74
2022/07/30 10:32:06;;;;;;;2.80;1.20;;;;;;;19.38;65.54;101991.97;5035422;28;20034;-74
2022/07/30 10:34:32;;;;;;;2.60;1.20;;;;;;;19.42;65.37;101992.66;5021563;28;20017;-74
2022/07/30 10:37:01;;;;;;;1.08;1.02;;;;;;;19.49;65.45;101991.34;5034319;28;20252;-74
2022/07/30 10:39:33;;;;;;;4.03;0.90;;;;;;;19.55;65.18;101984.78;5034195;28;20233;-74
2022/07/30 10:42:36;;;;;;;1.38;1.10;;;;;;;19.63;65.20;101981.66;5034208;28;20108;-74
2022/07/30 10:45:26;;;;;;;0.98;0.90;;;;;;;19.64;64.83;101973.59;5026716;28;20045;-74
2022/07/30 10:47:53;;;;;;;2.17;1.10;;;;;;;19.67;64.86;101975.25;5022734;28;20071;-74
2022/07/30 10:50:25;;;;;;;2.45;1.20;;;;;;;19.70;65.22;101980.34;5034744;28;20041;-74
2022/07/30 10:52:56;;;;;;;1.88;1.30;;;;;;;19.72;65.03;101979.31;5035551;28;20257;-74
2022/07/30 10:55:25;;;;;;;3.15;1.17;;;;;;;19.74;64.74;101977.44;5034723;28;20041;-74
2022/07/30 10:58:08;;;;;;;1.15;1.05;;;;;;;19.79;65.25;101981.63;5038443;28;20033;-74
2022/07/30 11:00:42;;;;;;;4.28;1.38;;;;;;;19.82;64.82;101966.34;5038627;28;20248;-74
2022/07/30 11:03:25;;;;;;;5.25;1.13;;;;;;;19.83;64.02;101978.69;5039112;28;20041;-74
2022/07/30 11:06:11;;;;;;;2.92;1.35;;;;;;;19.85;63.56;101975.94;5027206;28;20087;-74
2022/07/30 11:08:41;;;;;;;3.63;1.30;;;;;;;19.87;63.68;101971.38;5038488;28;20033;-74
2022/07/30 11:11:21;;;;;;;1.40;1.30;;;;;;;19.87;63.32;101974.03;5038751;28;20398;-74
2022/07/30 11:13:58;;;;;;;4.35;1.50;;;;;;;19.89;63.53;101972.13;5025675;28;20033;-74
2022/07/30 11:16:44;;;;;;;2.33;1.40;;;;;;;19.90;64.21;101976.50;5038096;28;20092;-74
2022/07/30 11:19:15;;;;;;;3.92;1.23;;;;;;;19.91;63.82;101970.25;5028106;28;20053;-74
2022/07/30 11:21:41;;;;;;;1.52;1.20;;;;;;;19.91;63.67;101976.41;5038486;28;20371;-74
2022/07/30 11:24:45;;;;;;;2.10;1.30;;;;;;;19.93;64.26;101976.31;5038196;28;20053;-74
2022/07/30 11:27:40;;;;;;;1.80;1.10;;;;;;;19.93;64.48;101978.97;5028429;28;20037;-74